createdAt,value
2023-04-15T00:01:08.041Z,30.83
2023-04-15T00:03:34.642Z,30.63
2023-04-15T00:06:01.626Z,30.76
2023-04-15T00:08:28.112Z,30.75
2023-04-15T00:10:54.688Z,30.79
2023-04-15T00:13:21.014Z,30.73
2023-04-15T00:15:47.950Z,30.82
2023-04-15T00:18:14.287Z,30.63
2023-04-15T00:20:40.624Z,30.69
2023-04-15T00:23:07.649Z,30.77
2023-04-15T00:25:33.996Z,30.76
2023-04-15T00:28:00.321Z,30.86
2023-04-15T00:30:26.792Z,30.78
2023-04-15T00:32:53.440Z,30.83
2023-04-15T00:35:19.825Z,30.73
2023-04-15T00:37:46.563Z,30.97
2023-04-15T00:40:13.560Z,30.77
2023-04-15T00:42:39.882Z,30.84
2023-04-15T00:45:07.097Z,30.89
2023-04-15T00:47:33.526Z,30.82
2023-04-15T00:49:59.877Z,30.84
2023-04-15T00:52:26.583Z,30.92
2023-04-15T00:54:53.589Z,30.70
2023-04-15T00:57:21.644Z,30.77
2023-04-15T00:59:47.967Z,31.07
2023-04-15T01:02:14.732Z,31.00
2023-04-15T01:04:41.237Z,30.90
2023-04-15T01:07:08.037Z,30.85
2023-04-15T01:09:34.346Z,31.02
2023-04-15T01:12:00.657Z,30.75
2023-04-15T01:14:26.988Z,30.75
2023-04-15T01:16:53.309Z,31.01
2023-04-15T01:19:19.617Z,30.79
2023-04-15T01:21:46.060Z,30.98
2023-04-15T01:24:12.440Z,30.83
2023-04-15T01:26:39.226Z,30.84
2023-04-15T01:29:05.555Z,30.95
2023-04-15T01:31:31.978Z,31.04
2023-04-15T01:33:58.574Z,31.05
2023-04-15T01:36:24.975Z,30.97
2023-04-15T01:38:51.404Z,30.92
2023-04-15T01:41:21.248Z,31.14
2023-04-15T01:43:47.587Z,30.93
2023-04-15T01:46:14.068Z,31.00
2023-04-15T01:48:40.855Z,31.12
2023-04-15T01:51:08.191Z,31.04
2023-04-15T01:53:34.612Z,31.12
2023-04-15T01:56:01.341Z,31.00
2023-04-15T01:58:27.744Z,31.13
2023-04-15T02:00:54.083Z,30.91
2023-04-15T02:03:20.512Z,30.92
2023-04-15T02:05:47.009Z,31.00
2023-04-15T02:08:13.362Z,30.99
2023-04-15T02:10:39.729Z,30.99
2023-04-15T02:13:06.374Z,30.98
2023-04-15T02:15:33.314Z,31.04
2023-04-15T02:18:00.920Z,31.00
2023-04-15T02:20:27.389Z,31.02
2023-04-15T02:22:53.720Z,30.94
2023-04-15T02:25:20.523Z,30.97
2023-04-15T02:27:46.863Z,31.02
2023-04-15T02:30:13.547Z,31.08
2023-04-15T02:32:40.273Z,30.83
2023-04-15T02:35:07.571Z,31.10
2023-04-15T02:37:37.055Z,31.14
2023-04-15T02:40:03.743Z,30.91
2023-04-15T02:42:31.862Z,31.02
2023-04-15T02:44:58.329Z,31.00
2023-04-15T02:47:26.442Z,30.95
2023-04-15T02:49:52.774Z,31.26
2023-04-15T02:52:19.264Z,31.13
2023-04-15T02:54:45.872Z,30.99
2023-04-15T02:57:12.924Z,31.15
2023-04-15T02:59:39.429Z,31.06
2023-04-15T03:02:07.782Z,31.15
2023-04-15T03:04:34.219Z,31.06
2023-04-15T03:07:01.420Z,31.13
2023-04-15T03:09:27.804Z,31.08
2023-04-15T03:11:54.757Z,31.09
2023-04-15T03:14:21.328Z,31.02
2023-04-15T03:16:47.632Z,31.17
2023-04-15T03:19:14.198Z,31.05
2023-04-15T03:21:40.508Z,31.05
2023-04-15T03:24:06.833Z,31.11
2023-04-15T03:26:33.176Z,31.17
2023-04-15T03:28:59.866Z,30.87
2023-04-15T03:31:26.545Z,31.01
2023-04-15T03:33:53.253Z,31.08
2023-04-15T03:36:19.581Z,30.99
2023-04-15T03:38:45.962Z,31.07
2023-04-15T03:41:12.341Z,31.19
2023-04-15T03:43:38.700Z,31.03
2023-04-15T03:46:05.072Z,31.17
2023-04-15T03:48:31.407Z,31.09
2023-04-15T03:50:57.741Z,31.25
2023-04-15T03:53:24.143Z,31.16
2023-04-15T03:55:50.448Z,31.16
2023-04-15T03:58:16.815Z,31.28
2023-04-15T04:00:43.146Z,31.08
2023-04-15T04:03:09.722Z,31.22
2023-04-15T04:05:41.325Z,31.10
2023-04-15T04:08:07.692Z,31.08
2023-04-15T04:10:34.020Z,31.03
2023-04-15T04:13:00.600Z,31.10
2023-04-15T04:15:27.101Z,31.14
2023-04-15T04:17:53.609Z,31.05
2023-04-15T04:20:19.985Z,31.05
2023-04-15T04:22:46.568Z,31.20
2023-04-15T04:25:12.878Z,31.11
2023-04-15T04:27:39.269Z,31.11
2023-04-15T04:30:06.783Z,31.03
2023-04-15T04:32:33.356Z,31.14
2023-04-15T04:34:59.701Z,31.07
2023-04-15T04:37:26.552Z,31.11
2023-04-15T04:39:52.872Z,31.02
2023-04-15T04:42:19.204Z,31.07
2023-04-15T04:44:45.556Z,31.10
2023-04-15T04:47:11.927Z,31.30
2023-04-15T04:49:38.323Z,31.14
2023-04-15T04:52:04.777Z,31.16
2023-04-15T04:54:31.544Z,31.12
2023-04-15T04:56:57.859Z,31.24
2023-04-15T04:59:24.302Z,31.10
2023-04-15T05:01:50.628Z,31.28
2023-04-15T05:04:17.049Z,31.16
2023-04-15T05:06:43.430Z,31.19
2023-04-15T05:09:09.757Z,31.08
2023-04-15T05:11:36.165Z,30.97
2023-04-15T05:14:02.582Z,31.06
2023-04-15T05:16:28.909Z,30.94
2023-04-15T05:18:55.266Z,31.02
2023-04-15T05:21:21.587Z,31.09
2023-04-15T05:23:47.913Z,31.00
2023-04-15T05:26:14.236Z,31.01
2023-04-15T05:28:40.687Z,31.06
2023-04-15T05:31:07.447Z,31.10
2023-04-15T05:33:33.897Z,31.01
2023-04-15T05:36:00.370Z,31.10
2023-04-15T05:38:27.072Z,31.08
2023-04-15T05:40:53.392Z,31.04
2023-04-15T05:43:19.944Z,31.06
2023-04-15T05:45:46.703Z,31.06
2023-04-15T05:48:13.089Z,30.94
2023-04-15T05:50:42.357Z,31.11
2023-04-15T05:53:08.880Z,31.01
2023-04-15T05:55:35.196Z,30.97
2023-04-15T05:58:01.762Z,31.08
2023-04-15T06:00:28.110Z,31.07
2023-04-15T06:02:54.800Z,31.09
2023-04-15T06:05:21.389Z,31.03
2023-04-15T06:07:48.683Z,30.90
2023-04-15T06:10:15.486Z,31.00
2023-04-15T06:12:41.799Z,31.04
2023-04-15T06:15:10.336Z,31.04
2023-04-15T06:17:37.207Z,31.03
2023-04-15T06:20:03.896Z,30.96
2023-04-15T06:22:30.712Z,31.15
2023-04-15T06:24:57.047Z,30.93
2023-04-15T06:27:23.622Z,31.00
2023-04-15T06:29:49.925Z,31.11
2023-04-15T06:32:16.260Z,31.07
2023-04-15T06:34:42.973Z,31.03
2023-04-15T06:37:11.094Z,31.21
2023-04-15T06:39:38.250Z,31.12
2023-04-15T06:42:04.668Z,31.25
2023-04-15T06:44:33.266Z,31.08
2023-04-15T06:47:00.150Z,31.05
2023-04-15T06:49:26.706Z,31.14
2023-04-15T06:51:53.015Z,31.08
2023-04-15T06:54:19.447Z,31.04
2023-04-15T06:56:45.774Z,30.99
2023-04-15T06:59:12.895Z,30.81
2023-04-15T07:01:39.246Z,30.80
2023-04-15T07:04:06.172Z,30.78
2023-04-15T07:06:32.767Z,30.78
2023-04-15T07:08:59.543Z,30.90
2023-04-15T07:11:26.294Z,30.91
2023-04-15T07:13:52.635Z,31.06
2023-04-15T07:16:19.235Z,31.06
2023-04-15T07:18:45.689Z,31.14
2023-04-15T07:21:12.869Z,31.14
2023-04-15T07:23:39.226Z,31.48
2023-04-15T07:26:05.560Z,31.63
2023-04-15T07:28:31.935Z,31.77
2023-04-15T07:30:58.366Z,31.79
2023-04-15T07:33:24.720Z,31.81
2023-04-15T07:35:51.083Z,31.72
2023-04-15T07:38:17.435Z,31.79
2023-04-15T07:40:43.951Z,31.70
2023-04-15T07:43:10.777Z,31.87
2023-04-15T07:45:37.161Z,31.67
2023-04-15T07:48:03.545Z,31.66
2023-04-15T07:50:29.896Z,31.80
2023-04-15T07:52:56.277Z,31.72
2023-04-15T07:55:23.473Z,31.92
2023-04-15T07:57:49.824Z,31.87
2023-04-15T08:00:16.276Z,31.85
2023-04-15T08:02:43.276Z,31.93
2023-04-15T08:05:10.684Z,31.77
2023-04-15T08:07:37.725Z,31.96
2023-04-15T08:10:04.139Z,32.01
2023-04-15T08:12:30.661Z,32.02
2023-04-15T08:14:58.029Z,31.91
2023-04-15T08:17:24.694Z,31.79
2023-04-15T08:19:51.427Z,31.41
2023-04-15T08:22:18.180Z,31.14
2023-04-15T08:24:45.597Z,30.93
2023-04-15T08:27:11.939Z,30.89
2023-04-15T08:29:38.454Z,30.95
2023-04-15T08:32:04.916Z,30.81
2023-04-15T08:34:31.306Z,30.96
2023-04-15T08:36:57.685Z,30.83
2023-04-15T08:39:24.008Z,30.93
2023-04-15T08:41:53.096Z,30.93
2023-04-15T08:44:20.125Z,31.03
2023-04-15T08:46:47.483Z,30.99
2023-04-15T08:49:13.856Z,31.02
2023-04-15T08:51:40.291Z,31.33
2023-04-15T08:54:07.156Z,31.36
2023-04-15T08:56:33.567Z,31.37
2023-04-15T08:59:00.587Z,31.54
2023-04-15T09:01:27.186Z,31.57
2023-04-15T09:03:57.079Z,31.79
2023-04-15T09:06:23.524Z,31.65
2023-04-15T09:08:50.432Z,31.85
2023-04-15T09:11:20.003Z,31.58
2023-04-15T09:13:46.798Z,31.77
2023-04-15T09:16:13.630Z,31.60
2023-04-15T09:18:40.035Z,31.79
2023-04-15T09:21:08.827Z,31.72
2023-04-15T09:23:35.661Z,31.66
2023-04-15T09:26:02.555Z,31.56
2023-04-15T09:28:28.869Z,31.45
2023-04-15T09:30:58.020Z,31.41
2023-04-15T09:33:24.636Z,31.41
2023-04-15T09:35:57.951Z,31.23
2023-04-15T09:38:24.285Z,31.08
2023-04-15T09:40:50.910Z,31.45
2023-04-15T09:43:17.475Z,31.28
2023-04-15T09:45:47.460Z,31.43
2023-04-15T09:48:17.699Z,31.34
2023-04-15T09:50:44.196Z,31.50
2023-04-15T09:53:11.833Z,31.46
2023-04-15T09:55:38.178Z,31.57
2023-04-15T09:58:08.692Z,31.70
2023-04-15T10:00:35.228Z,31.50
2023-04-15T10:03:02.109Z,31.70
2023-04-15T10:05:29.829Z,31.48
2023-04-15T10:07:56.611Z,31.67
2023-04-15T10:10:22.953Z,31.56
2023-04-15T10:12:49.278Z,31.58
2023-04-15T10:15:16.778Z,31.50
2023-04-15T10:17:43.950Z,31.47
2023-04-15T10:20:10.348Z,31.48
2023-04-15T10:22:36.679Z,31.52
2023-04-15T10:25:04.134Z,31.62
2023-04-15T10:27:30.462Z,31.71
2023-04-15T10:29:57.122Z,31.64
2023-04-15T10:32:24.222Z,31.56
2023-04-15T10:34:53.066Z,31.57
2023-04-15T10:37:21.353Z,31.65
2023-04-15T10:39:47.781Z,31.67
2023-04-15T10:42:17.558Z,31.75
2023-04-15T10:44:52.860Z,31.73
2023-04-15T10:47:21.018Z,31.55
2023-04-15T10:49:48.411Z,31.56
2023-04-15T10:52:15.408Z,31.45
2023-04-15T10:54:41.798Z,31.24
2023-04-15T10:57:09.080Z,31.30
2023-04-15T10:59:39.020Z,31.33
2023-04-15T11:02:06.014Z,31.18
2023-04-15T11:04:51.364Z,31.14
2023-04-15T11:07:37.108Z,31.23
2023-04-15T11:10:04.770Z,31.48
2023-04-15T11:12:35.118Z,31.37
2023-04-15T11:15:22.139Z,31.54
2023-04-15T11:17:48.463Z,31.51
2023-04-15T11:20:15.903Z,31.55
2023-04-15T11:22:48.779Z,31.57
2023-04-15T11:25:25.941Z,31.68
2023-04-15T11:27:52.529Z,31.30
2023-04-15T11:30:28.440Z,31.42
2023-04-15T11:32:55.475Z,31.40
2023-04-15T11:35:22.101Z,31.33
2023-04-15T11:37:49.435Z,31.37
2023-04-15T11:40:17.512Z,31.23
2023-04-15T11:42:49.839Z,31.69
2023-04-15T11:45:16.600Z,31.59
2023-04-15T11:47:42.984Z,31.54
2023-04-15T11:50:16.457Z,31.60
2023-04-15T11:52:58.736Z,31.49
2023-04-15T11:55:25.467Z,31.30
2023-04-15T11:58:10.835Z,31.27
2023-04-15T12:00:37.148Z,31.11
2023-04-15T12:03:13.551Z,31.22
2023-04-15T12:05:58.857Z,30.97
2023-04-15T12:08:25.537Z,31.08
2023-04-15T12:10:51.848Z,31.12
2023-04-15T12:13:18.213Z,31.36
2023-04-15T12:15:45.455Z,31.34
2023-04-15T12:18:19.172Z,31.43
2023-04-15T12:20:45.722Z,31.58
2023-04-15T12:23:12.061Z,31.47
2023-04-15T12:25:38.637Z,31.50
2023-04-15T12:28:11.084Z,31.61
2023-04-15T12:30:37.841Z,31.53
2023-04-15T12:33:04.933Z,31.53
2023-04-15T12:35:31.283Z,31.53
2023-04-15T12:37:57.606Z,31.34
2023-04-15T12:40:23.930Z,31.56
2023-04-15T12:42:50.235Z,31.34
2023-04-15T12:45:16.539Z,31.50
2023-04-15T12:47:42.883Z,31.51
2023-04-15T12:50:09.213Z,31.63
2023-04-15T12:52:35.511Z,31.63
2023-04-15T12:55:01.832Z,31.57
2023-04-15T12:57:28.251Z,31.50
2023-04-15T12:59:54.587Z,31.44
2023-04-15T13:02:25.445Z,31.54
2023-04-15T13:04:52.300Z,31.36
2023-04-15T13:07:18.692Z,31.34
2023-04-15T13:09:45.098Z,31.34
2023-04-15T13:12:13.739Z,31.25
2023-04-15T13:14:40.581Z,31.37
2023-04-15T13:17:10.152Z,31.41
2023-04-15T13:19:37.065Z,31.38
2023-04-15T13:22:03.622Z,31.59
2023-04-15T13:24:29.930Z,31.46
2023-04-15T13:26:59.065Z,31.51
2023-04-15T13:29:25.731Z,31.66
2023-04-15T13:31:52.335Z,31.50
2023-04-15T13:34:18.761Z,31.33
2023-04-15T13:36:45.921Z,31.35
2023-04-15T13:39:12.256Z,31.36
2023-04-15T13:41:38.917Z,31.18
2023-04-15T13:44:06.391Z,31.30
2023-04-15T13:46:32.956Z,31.27
2023-04-15T13:48:59.299Z,31.38
2023-04-15T13:51:26.979Z,31.44
2023-04-15T13:53:53.300Z,31.59
2023-04-15T13:56:19.800Z,31.53
2023-04-15T13:58:46.117Z,31.47
2023-04-15T14:01:12.729Z,31.56
2023-04-15T14:03:39.386Z,31.38
2023-04-15T14:06:06.059Z,31.31
2023-04-15T14:08:32.714Z,31.21
2023-04-15T14:10:59.051Z,31.26
2023-04-15T14:13:25.400Z,31.34
2023-04-15T14:15:51.726Z,31.34
2023-04-15T14:18:18.047Z,31.15
2023-04-15T14:20:44.410Z,31.31
2023-04-15T14:23:10.943Z,31.42
2023-04-15T14:25:39.128Z,31.34
2023-04-15T14:28:08.383Z,31.46
2023-04-15T14:30:34.752Z,31.41
2023-04-15T14:33:01.262Z,31.16
2023-04-15T14:35:27.963Z,31.18
2023-04-15T14:37:54.367Z,30.88
2023-04-15T14:40:20.717Z,31.02
2023-04-15T14:42:47.072Z,30.64
2023-04-15T14:45:13.433Z,30.62
2023-04-15T14:47:39.773Z,30.80
2023-04-15T14:50:06.273Z,30.62
2023-04-15T14:52:38.873Z,30.29
2023-04-15T14:55:08.324Z,30.11
2023-04-15T14:57:34.656Z,30.17
2023-04-15T15:00:00.969Z,29.92
2023-04-15T15:02:38.111Z,30.20
2023-04-15T15:05:06.553Z,29.98
2023-04-15T15:07:33.007Z,29.85
2023-04-15T15:09:59.309Z,29.60
2023-04-15T15:12:25.730Z,29.47
2023-04-15T15:14:52.039Z,29.62
2023-04-15T15:17:18.359Z,29.39
2023-04-15T15:19:44.692Z,29.37
2023-04-15T15:22:11.004Z,29.35
2023-04-15T15:24:37.318Z,29.35
2023-04-15T15:27:03.636Z,29.34
2023-04-15T15:29:29.944Z,29.82
2023-04-15T15:31:56.561Z,29.78
2023-04-15T15:34:22.866Z,29.81
2023-04-15T15:36:49.195Z,30.35
2023-04-15T15:39:15.687Z,30.38
2023-04-15T15:41:41.998Z,30.38
2023-04-15T15:44:08.321Z,30.31
2023-04-15T15:46:35.276Z,30.57
2023-04-15T15:49:02.786Z,30.44
2023-04-15T15:51:29.417Z,30.35
2023-04-15T15:53:55.957Z,30.59
2023-04-15T15:56:22.329Z,30.54
2023-04-15T15:58:48.652Z,30.32
2023-04-15T16:01:14.969Z,30.38
2023-04-15T16:03:41.451Z,30.41
2023-04-15T16:06:07.864Z,30.44
2023-04-15T16:08:34.175Z,30.62
2023-04-15T16:11:00.488Z,30.78
2023-04-15T16:13:26.806Z,30.42
2023-04-15T16:15:53.120Z,30.55
2023-04-15T16:18:19.444Z,30.57
2023-04-15T16:20:45.839Z,30.41
2023-04-15T16:23:13.146Z,30.87
2023-04-15T16:25:39.587Z,30.39
2023-04-15T16:28:15.044Z,30.91
2023-04-15T16:30:51.744Z,30.88
2023-04-15T16:33:18.073Z,30.90
2023-04-15T16:35:44.475Z,31.02
2023-04-15T16:38:10.795Z,31.28
2023-04-15T16:40:37.249Z,31.51
2023-04-15T16:43:03.699Z,32.08
2023-04-15T16:45:30.104Z,31.92
2023-04-15T16:47:56.928Z,32.54
2023-04-15T16:50:23.936Z,32.95
2023-04-15T16:52:50.274Z,33.18
2023-04-15T16:55:16.587Z,33.51
2023-04-15T16:58:00.617Z,33.50
2023-04-15T17:00:29.506Z,33.19
2023-04-15T17:02:55.940Z,33.07
2023-04-15T17:05:22.665Z,33.42
2023-04-15T17:07:49.029Z,33.66
2023-04-15T17:10:15.397Z,33.61
2023-04-15T17:12:41.737Z,33.69
2023-04-15T17:15:08.385Z,33.99
2023-04-15T17:17:34.989Z,33.84
2023-04-15T17:20:01.347Z,33.64
2023-04-15T17:22:27.757Z,33.53
2023-04-15T17:24:54.081Z,33.42
2023-04-15T17:27:21.213Z,33.35
2023-04-15T17:29:47.527Z,33.03
2023-04-15T17:32:13.838Z,33.26
2023-04-15T17:34:49.805Z,33.27
2023-04-15T17:37:17.478Z,33.22
2023-04-15T17:39:43.819Z,33.35
2023-04-15T17:42:13.125Z,33.42
2023-04-15T17:44:39.558Z,33.34
2023-04-15T17:47:05.858Z,33.35
2023-04-15T17:49:34.077Z,33.44
2023-04-15T17:52:00.606Z,33.68
2023-04-15T17:54:26.944Z,33.24
2023-04-15T17:56:53.463Z,33.24
2023-04-15T17:59:19.815Z,33.32
2023-04-15T18:01:46.156Z,33.37
2023-04-15T18:04:12.933Z,33.61
2023-04-15T18:06:39.570Z,33.16
2023-04-15T18:09:06.824Z,32.99
2023-04-15T18:11:33.496Z,33.25
2023-04-15T18:13:59.827Z,33.37
2023-04-15T18:16:26.241Z,33.13
2023-04-15T18:18:52.772Z,32.87
2023-04-15T18:21:19.104Z,32.80
2023-04-15T18:23:45.929Z,33.05
2023-04-15T18:26:12.595Z,32.73
2023-04-15T18:28:39.800Z,32.82
2023-04-15T18:31:06.287Z,33.00
2023-04-15T18:33:32.635Z,32.84
2023-04-15T18:35:58.962Z,32.65
2023-04-15T18:38:25.273Z,32.86
2023-04-15T18:40:51.748Z,32.37
2023-04-15T18:43:18.065Z,31.72
2023-04-15T18:45:44.429Z,31.94
2023-04-15T18:48:10.863Z,31.66
2023-04-15T18:50:37.232Z,31.54
2023-04-15T18:53:03.550Z,31.62
2023-04-15T18:55:29.884Z,31.88
2023-04-15T18:57:56.772Z,31.81
2023-04-15T19:00:32.641Z,31.76
2023-04-15T19:02:59.825Z,31.63
2023-04-15T19:05:26.233Z,31.50
2023-04-15T19:07:52.557Z,31.56
2023-04-15T19:10:18.943Z,31.59
2023-04-15T19:12:45.466Z,31.11
2023-04-15T19:15:11.780Z,31.29
2023-04-15T19:17:38.367Z,31.09
2023-04-15T19:20:04.986Z,31.15
2023-04-15T19:22:31.316Z,31.00
2023-04-15T19:24:57.684Z,31.25
2023-04-15T19:27:24.027Z,33.43
2023-04-15T19:29:50.375Z,34.01
2023-04-15T19:32:16.765Z,34.40
2023-04-15T19:34:43.124Z,34.37
2023-04-15T19:37:09.443Z,34.40
2023-04-15T19:39:35.831Z,33.80
2023-04-15T19:42:02.691Z,32.60
2023-04-15T19:44:29.351Z,32.05
2023-04-15T19:46:55.823Z,31.93
2023-04-15T19:49:22.149Z,31.94
2023-04-15T19:51:49.349Z,31.63
2023-04-15T19:54:15.839Z,31.50
2023-04-15T19:56:42.206Z,31.63
2023-04-15T19:59:08.535Z,31.73
2023-04-15T20:01:34.867Z,31.90
2023-04-15T20:04:03.528Z,31.73
2023-04-15T20:06:30.261Z,31.81
2023-04-15T20:08:56.675Z,31.95
2023-04-15T20:12:09.659Z,32.00
2023-04-15T20:14:15.366Z,31.99
2023-04-15T20:16:41.673Z,32.01
2023-04-15T20:19:09.358Z,31.72
2023-04-15T20:21:35.989Z,31.71
2023-04-15T20:24:02.460Z,31.80
2023-04-15T20:26:28.798Z,31.87
2023-04-15T20:28:55.356Z,31.65
2023-04-15T20:31:21.868Z,31.75
2023-04-15T20:33:48.490Z,31.61
2023-04-15T20:36:14.813Z,31.79
2023-04-15T20:38:41.119Z,31.86
2023-04-15T20:41:07.442Z,31.69
2023-04-15T20:43:33.787Z,31.96
2023-04-15T20:46:09.946Z,32.22
2023-04-15T20:48:44.038Z,31.90
2023-04-15T20:51:10.417Z,31.78
2023-04-15T20:53:36.767Z,32.13
2023-04-15T20:56:03.105Z,31.80
2023-04-15T20:58:29.418Z,31.60
2023-04-15T21:00:55.815Z,31.63
2023-04-15T21:03:22.346Z,32.05
2023-04-15T21:05:48.947Z,31.91
2023-04-15T21:08:15.435Z,31.92
2023-04-15T21:10:41.767Z,31.93
2023-04-15T21:13:08.182Z,31.90
2023-04-15T21:15:34.574Z,31.95
2023-04-15T21:18:01.020Z,32.10
2023-04-15T21:20:27.943Z,32.10
2023-04-15T21:22:54.635Z,31.90
2023-04-15T21:25:21.138Z,31.80
2023-04-15T21:27:47.507Z,32.00
2023-04-15T21:30:13.823Z,32.20
2023-04-15T21:32:40.240Z,32.33
2023-04-15T21:35:06.750Z,32.12
2023-04-15T21:37:33.067Z,31.97
2023-04-15T21:39:59.535Z,32.17
2023-04-15T21:42:26.168Z,31.89
2023-04-15T21:44:52.562Z,32.24
2023-04-15T21:47:18.936Z,32.20
2023-04-15T21:49:45.356Z,32.05
2023-04-15T21:52:11.663Z,32.23
2023-04-15T21:54:38.011Z,32.12
2023-04-15T21:57:04.362Z,32.07
2023-04-15T21:59:30.667Z,31.58
2023-04-15T22:01:57.127Z,31.88
2023-04-15T22:04:23.661Z,31.85
2023-04-15T22:06:50.150Z,32.04
2023-04-15T22:09:16.785Z,32.33
2023-04-15T22:11:43.411Z,32.14
2023-04-15T22:14:09.764Z,32.25
2023-04-15T22:16:36.132Z,31.75
2023-04-15T22:19:02.586Z,31.87
2023-04-15T22:21:28.954Z,31.73
2023-04-15T22:24:37.243Z,31.88
2023-04-15T22:26:41.747Z,31.41
2023-04-15T22:29:08.291Z,31.32
2023-04-15T22:31:34.634Z,31.54
2023-04-15T22:34:01.098Z,31.30
2023-04-15T22:36:28.008Z,31.33
2023-04-15T22:38:54.348Z,31.27
2023-04-15T22:41:20.897Z,31.29
2023-04-15T22:43:47.213Z,31.08
2023-04-15T22:46:13.580Z,31.26
2023-04-15T22:48:40.019Z,31.32
2023-04-15T22:51:06.484Z,30.90
2023-04-15T22:53:32.812Z,31.12
2023-04-15T22:55:59.118Z,31.17
2023-04-15T22:58:25.560Z,31.02
2023-04-15T23:00:51.922Z,30.75
2023-04-15T23:03:18.338Z,30.83
2023-04-15T23:05:45.610Z,30.77
2023-04-15T23:08:11.991Z,31.19
2023-04-15T23:10:40.072Z,30.79
2023-04-15T23:13:06.474Z,31.19
2023-04-15T23:15:32.803Z,31.14
2023-04-15T23:18:00.332Z,31.06
2023-04-15T23:20:26.699Z,31.07
2023-04-15T23:22:53.055Z,30.95
2023-04-15T23:25:22.165Z,31.31
2023-04-15T23:27:48.480Z,31.17
2023-04-15T23:30:14.991Z,32.05
2023-04-15T23:32:41.342Z,31.62
2023-04-15T23:35:07.820Z,31.52
2023-04-15T23:37:34.131Z,31.52
2023-04-15T23:40:00.490Z,31.24
2023-04-15T23:42:27.053Z,31.36
2023-04-15T23:44:53.389Z,31.39
2023-04-15T23:47:19.736Z,31.00
2023-04-15T23:49:46.242Z,31.51
2023-04-15T23:52:12.567Z,31.27
2023-04-15T23:54:39.383Z,31.06
2023-04-15T23:57:05.868Z,31.39
2023-04-15T23:59:32.207Z,31.03
